createdAt,value
2018-10-05T00:00:39.958Z,13.20
2018-10-05T00:03:09.233Z,13.20
2018-10-05T00:05:38.504Z,13.20
2018-10-05T00:08:07.735Z,13.20
2018-10-05T00:10:37.249Z,13.10
2018-10-05T00:13:06.670Z,13.10
2018-10-05T00:15:35.945Z,13.10
2018-10-05T00:18:05.167Z,13.10
2018-10-05T00:20:34.537Z,13.10
2018-10-05T00:23:03.714Z,13.10
2018-10-05T00:25:32.956Z,13.00
2018-10-05T00:28:02.212Z,13.10
2018-10-05T00:30:31.456Z,13.00
2018-10-05T00:33:00.665Z,13.00
2018-10-05T00:35:29.964Z,13.00
2018-10-05T00:37:59.223Z,13.00
2018-10-05T00:40:28.458Z,13.00
2018-10-05T00:42:57.668Z,13.00
2018-10-05T00:45:26.894Z,12.90
2018-10-05T00:47:56.108Z,12.90
2018-10-05T00:50:25.354Z,12.90
2018-10-05T00:52:54.644Z,12.90
2018-10-05T00:55:23.888Z,12.90
2018-10-05T00:57:53.121Z,12.80
2018-10-05T01:00:22.360Z,12.80
2018-10-05T01:02:51.608Z,12.80
2018-10-05T01:05:20.856Z,12.80
2018-10-05T01:07:50.061Z,12.80
2018-10-05T01:10:19.282Z,12.80
2018-10-05T01:12:48.499Z,12.80
2018-10-05T01:15:17.747Z,12.70
2018-10-05T01:17:46.974Z,12.70
2018-10-05T01:20:16.223Z,12.70
2018-10-05T01:22:45.438Z,12.70
2018-10-05T01:25:14.734Z,12.60
2018-10-05T01:27:43.980Z,12.60
2018-10-05T01:30:13.700Z,12.60
2018-10-05T01:32:44.335Z,12.60
2018-10-05T01:35:14.177Z,12.60
2018-10-05T01:37:43.407Z,12.50
2018-10-05T01:40:12.631Z,12.50
2018-10-05T01:42:42.097Z,12.50
2018-10-05T01:45:11.327Z,12.50
2018-10-05T01:47:40.553Z,12.50
2018-10-05T01:50:09.793Z,12.50
2018-10-05T01:52:39.029Z,12.40
2018-10-05T01:55:08.249Z,12.50
2018-10-05T01:57:37.466Z,12.40
2018-10-05T02:00:06.728Z,12.40
2018-10-05T02:02:39.118Z,12.40
2018-10-05T02:05:08.594Z,12.40
2018-10-05T02:07:37.857Z,12.30
2018-10-05T02:10:07.099Z,12.30
2018-10-05T02:12:36.886Z,12.30
2018-10-05T02:15:06.338Z,12.30
2018-10-05T02:17:35.564Z,12.30
2018-10-05T02:20:04.898Z,12.30
2018-10-05T02:22:34.106Z,12.30
2018-10-05T02:25:03.342Z,12.20
2018-10-05T02:27:32.589Z,12.20
2018-10-05T02:30:02.336Z,12.20
2018-10-05T02:32:31.572Z,12.20
2018-10-05T02:35:00.781Z,12.20
2018-10-05T02:37:30.004Z,12.20
2018-10-05T02:39:59.260Z,12.20
2018-10-05T02:42:28.517Z,12.20
2018-10-05T02:44:57.751Z,12.10
2018-10-05T02:47:27.010Z,12.10
2018-10-05T02:49:56.234Z,12.10
2018-10-05T02:52:25.476Z,12.10
2018-10-05T02:54:54.689Z,12.10
2018-10-05T02:57:23.924Z,12.00
2018-10-05T02:59:53.160Z,12.00
2018-10-05T03:02:32.693Z,12.00
2018-10-05T03:05:01.966Z,12.00
2018-10-05T03:07:31.989Z,12.00
2018-10-05T03:10:02.198Z,12.00
2018-10-05T03:12:31.458Z,11.90
2018-10-05T03:15:00.666Z,11.90
2018-10-05T03:17:29.898Z,11.90
2018-10-05T03:19:59.220Z,11.90
2018-10-05T03:22:28.402Z,11.90
2018-10-05T03:24:57.626Z,11.80
2018-10-05T03:27:26.878Z,11.90
2018-10-05T03:29:56.099Z,11.80
2018-10-05T03:32:25.356Z,11.80
2018-10-05T03:34:54.556Z,11.80
2018-10-05T03:37:23.987Z,11.80
2018-10-05T03:39:53.208Z,11.70
2018-10-05T03:42:22.465Z,11.70
2018-10-05T03:44:51.743Z,11.70
2018-10-05T03:47:20.997Z,11.70
2018-10-05T03:49:50.286Z,11.70
2018-10-05T03:52:19.764Z,11.70
2018-10-05T03:54:49.001Z,11.70
2018-10-05T03:57:18.266Z,11.60
2018-10-05T03:59:47.528Z,11.60
2018-10-05T04:02:16.790Z,11.60
2018-10-05T04:04:46.061Z,11.60
2018-10-05T04:07:15.306Z,11.60
2018-10-05T04:09:44.538Z,11.60
2018-10-05T04:12:13.782Z,11.50
2018-10-05T04:14:42.987Z,11.50
2018-10-05T04:17:12.236Z,11.50
2018-10-05T04:19:41.477Z,11.50
2018-10-05T04:22:31.393Z,11.50
2018-10-05T04:25:00.627Z,11.50
2018-10-05T04:27:29.849Z,11.50
2018-10-05T04:29:59.075Z,11.50
2018-10-05T04:32:28.317Z,11.40
2018-10-05T04:34:57.533Z,11.40
2018-10-05T04:37:26.764Z,11.40
2018-10-05T04:39:56.020Z,11.40
2018-10-05T04:42:25.270Z,11.40
2018-10-05T04:44:54.492Z,11.40
2018-10-05T04:47:23.741Z,11.40
2018-10-05T04:49:52.968Z,11.30
2018-10-05T04:52:22.212Z,11.30
2018-10-05T04:54:51.468Z,11.30
2018-10-05T04:57:20.717Z,11.30
2018-10-05T04:59:49.947Z,11.30
2018-10-05T05:02:19.210Z,11.30
2018-10-05T05:04:48.469Z,11.30
2018-10-05T05:07:17.701Z,11.20
2018-10-05T05:09:46.924Z,11.20
2018-10-05T05:12:16.194Z,11.20
2018-10-05T05:14:45.425Z,11.20
2018-10-05T05:17:14.676Z,11.20
2018-10-05T05:19:43.957Z,11.20
2018-10-05T05:22:13.131Z,11.20
2018-10-05T05:24:42.405Z,11.20
2018-10-05T05:27:11.663Z,11.10
2018-10-05T05:29:40.880Z,11.10
2018-10-05T05:32:10.088Z,11.10
2018-10-05T05:34:39.315Z,11.10
2018-10-05T05:37:08.528Z,11.10
2018-10-05T05:39:37.738Z,11.00
2018-10-05T05:42:06.986Z,11.00
2018-10-05T05:44:36.207Z,11.00
2018-10-05T05:47:05.429Z,11.00
2018-10-05T05:49:34.915Z,11.00
2018-10-05T05:52:04.140Z,11.00
2018-10-05T05:54:33.477Z,11.00
2018-10-05T05:57:02.620Z,11.00
2018-10-05T05:59:31.840Z,11.00
2018-10-05T06:02:01.059Z,10.90
2018-10-05T06:04:30.297Z,10.90
2018-10-05T06:06:59.526Z,10.90
2018-10-05T06:09:28.752Z,10.90
2018-10-05T06:11:57.993Z,10.90
2018-10-05T06:14:27.210Z,10.90
2018-10-05T06:16:56.456Z,10.90
2018-10-05T06:19:25.699Z,10.90
2018-10-05T06:21:55.036Z,10.90
2018-10-05T06:24:24.194Z,10.90
2018-10-05T06:26:53.433Z,10.90
2018-10-05T06:29:22.908Z,10.80
2018-10-05T06:31:52.147Z,10.80
2018-10-05T06:34:21.429Z,10.80
2018-10-05T06:36:50.732Z,10.80
2018-10-05T06:39:19.962Z,10.80
2018-10-05T06:41:49.189Z,10.80
2018-10-05T06:44:18.405Z,10.80
2018-10-05T06:46:47.646Z,10.80
2018-10-05T06:49:16.864Z,10.80
2018-10-05T06:51:46.189Z,10.80
2018-10-05T06:54:15.404Z,10.80
2018-10-05T06:56:44.622Z,10.80
2018-10-05T06:59:13.858Z,10.80
2018-10-05T07:01:43.129Z,10.80
2018-10-05T07:04:12.277Z,10.90
2018-10-05T07:06:41.462Z,10.80
2018-10-05T07:09:10.672Z,10.90
2018-10-05T07:11:39.983Z,10.90
2018-10-05T07:14:09.209Z,10.80
2018-10-05T07:16:38.472Z,10.90
2018-10-05T07:19:07.697Z,10.90
2018-10-05T07:21:36.927Z,10.90
2018-10-05T07:24:06.152Z,10.90
2018-10-05T07:26:35.371Z,11.00
2018-10-05T07:29:04.609Z,11.00
2018-10-05T07:31:33.818Z,11.00
2018-10-05T07:34:03.043Z,11.10
2018-10-05T07:36:32.344Z,11.10
2018-10-05T07:39:01.582Z,11.10
2018-10-05T07:41:31.175Z,11.20
2018-10-05T07:44:00.413Z,11.20
2018-10-05T07:46:29.615Z,11.30
2018-10-05T07:48:58.873Z,11.30
2018-10-05T07:51:28.098Z,11.30
2018-10-05T07:53:57.344Z,11.40
2018-10-05T07:56:26.572Z,11.40
2018-10-05T07:58:55.804Z,11.50
2018-10-05T08:01:25.068Z,11.50
2018-10-05T08:03:54.304Z,11.60
2018-10-05T08:06:23.527Z,11.70
2018-10-05T08:08:52.744Z,11.70
2018-10-05T08:11:21.973Z,11.80
2018-10-05T08:13:51.224Z,11.80
2018-10-05T08:16:20.452Z,11.90
2018-10-05T08:18:49.703Z,12.00
2018-10-05T08:21:18.968Z,12.00
2018-10-05T08:23:48.165Z,12.10
2018-10-05T08:26:17.382Z,12.20
2018-10-05T08:28:46.773Z,12.30
2018-10-05T08:31:16.274Z,12.30
2018-10-05T08:33:45.611Z,12.40
2018-10-05T08:36:14.820Z,12.50
2018-10-05T08:38:44.025Z,12.60
2018-10-05T08:41:13.260Z,12.70
2018-10-05T08:43:42.497Z,12.70
2018-10-05T08:46:11.730Z,12.80
2018-10-05T08:48:40.933Z,12.90
2018-10-05T08:51:10.175Z,13.00
2018-10-05T08:53:39.416Z,13.00
2018-10-05T08:56:08.641Z,13.10
2018-10-05T08:58:37.878Z,13.30
2018-10-05T09:01:07.196Z,13.40
2018-10-05T09:03:36.469Z,13.40
2018-10-05T09:06:05.721Z,13.50
2018-10-05T09:08:35.048Z,13.60
2018-10-05T09:11:04.293Z,13.70
2018-10-05T09:13:33.516Z,13.90
2018-10-05T09:16:02.753Z,14.00
2018-10-05T09:18:32.007Z,14.10
2018-10-05T09:21:01.244Z,14.20
2018-10-05T09:23:30.466Z,14.30
2018-10-05T09:25:59.718Z,14.40
2018-10-05T09:28:28.932Z,14.50
2018-10-05T09:30:58.170Z,14.70
2018-10-05T09:33:27.387Z,14.80
2018-10-05T09:35:56.624Z,14.90
2018-10-05T09:38:25.841Z,15.00
2018-10-05T09:40:55.079Z,15.10
2018-10-05T09:43:24.286Z,15.20
2018-10-05T09:45:53.483Z,15.20
2018-10-05T09:48:22.689Z,15.30
2018-10-05T09:50:51.895Z,15.40
2018-10-05T09:53:21.099Z,15.50
2018-10-05T09:55:50.314Z,15.60
2018-10-05T09:58:19.541Z,15.60
2018-10-05T10:00:54.087Z,15.70
2018-10-05T10:03:28.499Z,15.80
2018-10-05T10:05:57.799Z,15.90
2018-10-05T10:08:27.181Z,16.00
2018-10-05T10:10:56.369Z,16.00
2018-10-05T10:13:25.647Z,16.10
2018-10-05T10:15:54.865Z,16.20
2018-10-05T10:18:24.134Z,16.20
2018-10-05T10:20:53.352Z,16.30
2018-10-05T10:23:22.686Z,16.40
2018-10-05T10:25:51.836Z,16.40
2018-10-05T10:28:21.108Z,16.50
2018-10-05T10:30:50.279Z,16.60
2018-10-05T10:33:19.501Z,16.70
2018-10-05T10:35:48.733Z,16.80
2018-10-05T10:38:17.943Z,16.90
2018-10-05T10:40:47.157Z,16.90
2018-10-05T10:43:16.371Z,17.00
2018-10-05T10:45:45.567Z,17.10
2018-10-05T10:48:14.782Z,17.10
2018-10-05T10:50:43.998Z,17.20
2018-10-05T10:53:13.278Z,17.30
2018-10-05T10:55:42.447Z,17.40
2018-10-05T10:58:11.652Z,17.50
2018-10-05T11:00:40.883Z,17.50
2018-10-05T11:03:10.155Z,17.60
2018-10-05T11:05:39.348Z,17.70
2018-10-05T11:08:08.553Z,17.70
2018-10-05T11:10:37.775Z,17.80
2018-10-05T11:13:06.977Z,17.90
2018-10-05T11:15:36.183Z,17.90
2018-10-05T11:18:05.405Z,18.00
2018-10-05T11:20:37.841Z,18.10
2018-10-05T11:23:07.301Z,18.20
2018-10-05T11:25:36.534Z,18.20
2018-10-05T11:28:05.764Z,18.20
2018-10-05T11:30:34.985Z,18.40
2018-10-05T11:33:04.199Z,18.40
2018-10-05T11:35:33.438Z,18.50
2018-10-05T11:38:02.672Z,18.50
2018-10-05T11:40:31.893Z,18.60
2018-10-05T11:43:01.143Z,18.70
2018-10-05T11:45:30.401Z,18.70
2018-10-05T11:47:59.817Z,18.80
2018-10-05T11:50:29.170Z,18.90
2018-10-05T11:52:59.250Z,19.00
2018-10-05T11:55:28.705Z,19.00
2018-10-05T11:57:57.941Z,19.10
2018-10-05T12:00:27.234Z,19.20
2018-10-05T12:02:56.507Z,19.20
2018-10-05T12:05:25.782Z,19.30
2018-10-05T12:07:55.047Z,19.40
2018-10-05T12:10:24.311Z,19.40
2018-10-05T12:12:53.541Z,19.50
2018-10-05T12:15:22.815Z,19.60
2018-10-05T12:17:52.040Z,19.60
2018-10-05T12:20:21.284Z,19.70
2018-10-05T12:22:50.709Z,19.70
2018-10-05T12:25:19.956Z,19.80
2018-10-05T12:27:49.230Z,19.90
2018-10-05T12:30:18.535Z,19.90
2018-10-05T12:32:47.810Z,20.00
2018-10-05T12:35:17.101Z,20.00
2018-10-05T12:37:46.344Z,20.10
2018-10-05T12:40:15.607Z,20.10
2018-10-05T12:42:44.848Z,20.20
2018-10-05T12:45:14.158Z,20.30
2018-10-05T12:47:43.408Z,20.30
2018-10-05T12:50:12.744Z,20.30
2018-10-05T12:52:41.929Z,20.40
2018-10-05T12:55:11.208Z,20.40
2018-10-05T12:57:40.444Z,20.50
2018-10-05T13:00:09.734Z,20.50
2018-10-05T13:02:39.015Z,20.50
2018-10-05T13:05:08.392Z,20.60
2018-10-05T13:07:37.567Z,20.60
2018-10-05T13:10:06.842Z,20.70
2018-10-05T13:12:36.134Z,20.70
2018-10-05T13:15:05.439Z,20.80
2018-10-05T13:17:34.817Z,20.80
2018-10-05T13:20:04.102Z,20.80
2018-10-05T13:22:33.345Z,20.90
2018-10-05T13:25:02.617Z,20.90
2018-10-05T13:27:31.938Z,20.90
2018-10-05T13:30:01.248Z,21.00
2018-10-05T13:32:30.505Z,21.00
2018-10-05T13:34:59.847Z,21.00
2018-10-05T13:37:29.180Z,21.00
2018-10-05T13:39:58.562Z,21.10
2018-10-05T13:42:27.853Z,21.10
2018-10-05T13:44:57.156Z,21.10
2018-10-05T13:47:26.448Z,21.20
2018-10-05T13:49:55.725Z,21.20
2018-10-05T13:52:25.049Z,21.20
2018-10-05T13:54:54.323Z,21.20
2018-10-05T13:57:23.585Z,21.30
2018-10-05T13:59:52.865Z,21.30
2018-10-05T14:02:22.147Z,21.30
2018-10-05T14:04:51.417Z,21.30
2018-10-05T14:07:20.696Z,21.30
2018-10-05T14:09:49.934Z,21.40
2018-10-05T14:12:19.206Z,21.40
2018-10-05T14:14:48.495Z,21.40
2018-10-05T14:17:17.961Z,21.40
2018-10-05T14:19:47.199Z,21.50
2018-10-05T14:22:16.463Z,21.50
2018-10-05T14:24:45.698Z,21.50
2018-10-05T14:27:14.956Z,21.50
2018-10-05T14:29:44.194Z,21.60
2018-10-05T14:32:13.516Z,21.60
2018-10-05T14:34:42.799Z,21.60
2018-10-05T14:37:12.060Z,21.60
2018-10-05T14:39:41.357Z,21.60
2018-10-05T14:42:10.698Z,21.60
2018-10-05T14:44:39.997Z,21.60
2018-10-05T14:47:09.447Z,21.60
2018-10-05T14:49:38.863Z,21.70
2018-10-05T14:52:08.122Z,21.70
2018-10-05T14:54:37.356Z,21.70
2018-10-05T14:57:06.681Z,21.70
2018-10-05T14:59:35.841Z,21.70
2018-10-05T15:02:05.101Z,21.70
2018-10-05T15:04:34.328Z,21.70
2018-10-05T15:07:03.670Z,21.70
2018-10-05T15:09:32.821Z,21.70
2018-10-05T15:12:02.072Z,21.70
2018-10-05T15:14:31.403Z,21.70
2018-10-05T15:17:00.696Z,21.70
2018-10-05T15:19:30.051Z,21.60
2018-10-05T15:21:59.343Z,21.60
2018-10-05T15:24:28.639Z,21.60
2018-10-05T15:26:57.882Z,21.60
2018-10-05T15:29:27.169Z,21.60
2018-10-05T15:31:56.426Z,21.60
2018-10-05T15:34:25.735Z,21.60
2018-10-05T15:36:54.974Z,21.50
2018-10-05T15:39:24.247Z,21.50
2018-10-05T15:41:53.512Z,21.50
2018-10-05T15:44:22.779Z,21.40
2018-10-05T15:47:00.247Z,21.40
2018-10-05T15:49:30.330Z,21.40
2018-10-05T15:51:59.851Z,21.40
2018-10-05T15:54:29.140Z,21.40
2018-10-05T15:56:58.382Z,21.30
2018-10-05T15:59:28.260Z,21.30
2018-10-05T16:01:57.716Z,21.30
2018-10-05T16:04:27.363Z,21.30
2018-10-05T16:06:56.626Z,21.30
2018-10-05T16:09:25.929Z,21.30
2018-10-05T16:11:55.416Z,21.30
2018-10-05T16:14:24.718Z,21.30
2018-10-05T16:16:53.932Z,21.30
2018-10-05T16:19:23.170Z,21.30
2018-10-05T16:21:52.398Z,21.30
2018-10-05T16:24:24.955Z,21.20
2018-10-05T16:26:54.188Z,21.20
2018-10-05T16:29:23.410Z,21.10
2018-10-05T16:31:52.667Z,21.10
2018-10-05T16:34:21.944Z,21.10
2018-10-05T16:36:51.207Z,21.00
2018-10-05T16:39:20.465Z,21.00
2018-10-05T16:41:49.693Z,20.90
2018-10-05T16:44:18.942Z,20.80
2018-10-05T16:46:48.166Z,20.80
2018-10-05T16:49:17.403Z,20.80
2018-10-05T16:51:46.660Z,20.70
2018-10-05T16:54:15.917Z,20.60
2018-10-05T16:56:45.147Z,20.60
2018-10-05T16:59:14.446Z,20.50
2018-10-05T17:01:43.705Z,20.50
2018-10-05T17:04:13.024Z,20.40
2018-10-05T17:06:42.261Z,20.40
2018-10-05T17:09:12.567Z,20.30
2018-10-05T17:11:43.196Z,20.20
2018-10-05T17:14:12.613Z,20.20
2018-10-05T17:16:41.932Z,20.10
2018-10-05T17:19:11.229Z,20.00
2018-10-05T17:21:40.485Z,19.90
2018-10-05T17:24:09.870Z,19.90
2018-10-05T17:26:39.097Z,19.80
2018-10-05T17:29:08.352Z,19.70
2018-10-05T17:31:37.605Z,19.70
2018-10-05T17:34:07.015Z,19.60
2018-10-05T17:36:36.259Z,19.60
2018-10-05T17:39:09.161Z,19.50
2018-10-05T17:41:38.414Z,19.40
2018-10-05T17:44:08.067Z,19.30
2018-10-05T17:46:37.329Z,19.30
2018-10-05T17:49:06.919Z,19.20
2018-10-05T17:51:36.153Z,19.20
2018-10-05T17:54:05.392Z,19.10
2018-10-05T17:56:34.674Z,19.10
2018-10-05T17:59:03.963Z,19.00
2018-10-05T18:01:33.191Z,19.00
2018-10-05T18:04:02.520Z,18.90
2018-10-05T18:06:31.759Z,18.80
2018-10-05T18:09:01.039Z,18.80
2018-10-05T18:11:30.366Z,18.70
2018-10-05T18:13:59.666Z,18.70
2018-10-05T18:16:28.965Z,18.60
2018-10-05T18:18:58.192Z,18.60
2018-10-05T18:21:27.483Z,18.50
2018-10-05T18:23:56.735Z,18.50
2018-10-05T18:26:26.070Z,18.40
2018-10-05T18:28:55.368Z,18.40
2018-10-05T18:31:24.640Z,18.30
2018-10-05T18:33:53.907Z,18.30
2018-10-05T18:36:23.174Z,18.20
2018-10-05T18:38:52.460Z,18.20
2018-10-05T18:41:21.971Z,18.20
2018-10-05T18:43:51.424Z,18.10
2018-10-05T18:46:20.741Z,18.10
2018-10-05T18:48:50.388Z,18.00
2018-10-05T18:51:19.818Z,18.00
2018-10-05T18:53:49.103Z,17.90
2018-10-05T18:56:35.336Z,17.90
2018-10-05T18:59:04.599Z,17.90
2018-10-05T19:01:33.950Z,17.80
2018-10-05T19:04:03.404Z,17.80
2018-10-05T19:06:32.654Z,17.70
2018-10-05T19:09:02.200Z,17.70
2018-10-05T19:11:31.517Z,17.60
2018-10-05T19:14:00.763Z,17.60
2018-10-05T19:16:30.052Z,17.60
2018-10-05T19:18:59.305Z,17.50
2018-10-05T19:21:28.614Z,17.50
2018-10-05T19:23:57.864Z,17.50
2018-10-05T19:26:27.388Z,17.40
2018-10-05T19:28:56.495Z,17.40
2018-10-05T19:31:25.774Z,17.40
2018-10-05T19:33:54.994Z,17.30
2018-10-05T19:36:24.369Z,17.30
2018-10-05T19:38:53.663Z,17.30
2018-10-05T19:41:22.996Z,17.30
2018-10-05T19:43:52.260Z,17.20
2018-10-05T19:46:21.534Z,17.20
2018-10-05T19:48:50.815Z,17.10
2018-10-05T19:51:20.083Z,17.10
2018-10-05T19:53:49.368Z,17.10
2018-10-05T19:56:18.625Z,17.00
2018-10-05T19:58:47.874Z,17.00
2018-10-05T20:01:17.151Z,17.30
2018-10-05T20:03:46.502Z,16.90
2018-10-05T20:06:15.771Z,16.90
2018-10-05T20:08:45.019Z,16.90
2018-10-05T20:11:14.362Z,16.90
2018-10-05T20:13:43.619Z,16.90
2018-10-05T20:16:12.876Z,16.80
2018-10-05T20:18:42.157Z,16.80
2018-10-05T20:21:11.467Z,16.80
2018-10-05T20:23:40.729Z,16.70
2018-10-05T20:26:10.027Z,16.70
2018-10-05T20:28:39.372Z,16.70
2018-10-05T20:31:08.626Z,16.70
2018-10-05T20:33:38.164Z,16.60
2018-10-05T20:36:07.554Z,16.60
2018-10-05T20:38:36.778Z,16.60
2018-10-05T20:41:06.161Z,16.60
2018-10-05T20:43:35.450Z,16.50
2018-10-05T20:46:04.749Z,16.50
2018-10-05T20:48:34.033Z,16.50
2018-10-05T20:51:03.523Z,16.40
2018-10-05T20:53:32.812Z,16.40
2018-10-05T20:56:02.086Z,16.40
2018-10-05T20:58:31.377Z,16.30
2018-10-05T21:01:00.674Z,16.40
2018-10-05T21:03:29.979Z,16.30
2018-10-05T21:05:59.404Z,16.30
2018-10-05T21:08:28.761Z,16.30
2018-10-05T21:10:58.028Z,16.20
2018-10-05T21:13:27.305Z,16.20
2018-10-05T21:15:56.569Z,16.20
2018-10-05T21:18:25.822Z,16.10
2018-10-05T21:20:55.074Z,16.10
2018-10-05T21:23:24.348Z,16.10
2018-10-05T21:25:53.623Z,16.10
2018-10-05T21:28:22.871Z,16.10
2018-10-05T21:30:52.134Z,16.00
2018-10-05T21:33:21.486Z,16.00
2018-10-05T21:35:50.669Z,16.00
2018-10-05T21:38:20.066Z,15.90
2018-10-05T21:40:49.316Z,15.90
2018-10-05T21:43:18.584Z,15.90
2018-10-05T21:45:47.908Z,15.90
2018-10-05T21:48:17.173Z,15.90
2018-10-05T21:50:46.494Z,15.80
2018-10-05T21:53:15.783Z,15.80
2018-10-05T21:55:45.120Z,15.80
2018-10-05T21:58:14.368Z,15.80
2018-10-05T22:00:43.633Z,15.70
2018-10-05T22:03:12.939Z,15.70
2018-10-05T22:05:42.240Z,15.70
2018-10-05T22:08:11.519Z,15.70
2018-10-05T22:10:40.790Z,15.60
2018-10-05T22:13:10.037Z,15.60
2018-10-05T22:15:39.310Z,15.60
2018-10-05T22:18:08.591Z,15.60
2018-10-05T22:20:37.845Z,15.50
2018-10-05T22:23:07.142Z,15.50
2018-10-05T22:25:36.412Z,15.50
2018-10-05T22:28:05.661Z,15.50
2018-10-05T22:30:34.932Z,15.40
2018-10-05T22:33:04.224Z,15.40
2018-10-05T22:35:34.458Z,15.40
2018-10-05T22:38:03.751Z,15.40
2018-10-05T22:40:33.019Z,15.40
2018-10-05T22:43:02.283Z,15.30
2018-10-05T22:45:31.556Z,15.30
2018-10-05T22:48:00.907Z,15.30
2018-10-05T22:50:30.154Z,15.30
2018-10-05T22:52:59.490Z,15.20
2018-10-05T22:55:28.726Z,15.20
2018-10-05T22:57:57.955Z,15.20
2018-10-05T23:00:27.198Z,15.20
2018-10-05T23:02:56.670Z,15.20
2018-10-05T23:05:25.928Z,15.10
2018-10-05T23:07:55.234Z,15.10
2018-10-05T23:10:24.494Z,15.10
2018-10-05T23:12:53.876Z,15.10
2018-10-05T23:15:23.106Z,15.10
2018-10-05T23:17:52.380Z,15.00
2018-10-05T23:20:21.637Z,15.00
2018-10-05T23:22:50.922Z,15.00
2018-10-05T23:25:20.152Z,15.00
2018-10-05T23:27:49.398Z,15.00
2018-10-05T23:30:18.630Z,14.90
2018-10-05T23:32:47.868Z,14.90
2018-10-05T23:35:17.074Z,14.90
2018-10-05T23:37:46.329Z,14.90
2018-10-05T23:40:15.558Z,14.80
2018-10-05T23:42:44.785Z,14.80
2018-10-05T23:45:14.020Z,14.80
2018-10-05T23:47:43.245Z,14.80
2018-10-05T23:50:12.458Z,14.80
2018-10-05T23:52:47.144Z,14.80
2018-10-05T23:55:16.366Z,14.70
2018-10-05T23:57:45.731Z,14.70
